ITY641 KSFO-LIRF
Flight info
| Callsign | ITY641 |
|---|---|
| Flight time | N/A |
| Altitude | 35000 |
| Route | SNTNA2 ORRCA DCT FMG J94 LLC DCT DLN DCT HILGR DCT GGW DCT 50N101W/N0498F370 52N090W DCT PIGLA DCT MCKEE/M085F370 DCT TOXIT DCT 60N050W/M085F390 61N040W 61N030W 60N020W DCT GOMUP/N0488F390 DCT GINGA DCT DONIB DCT DIMLI/N0487F410 DCT DUFFY DCT RINGA DCT MAKUX DCT SOSIM L15 KEPAD L151 MID UL612 OGULO DCT OKASI DCT OKEKO DCT MOU DCT MADIV DCT MOKIP DCT TUFTA DCT KOGAS DCT MEDAM DCT NITAM DCT MOGBO DCT ELB/N0483F400 DCT ELKAP ELKAP3A |
| Aircraft | A359/H-SDE2E3GHIJ3J4J5LM1ORWXY/LB1D1 |
Departure
| Time | N/A |
|---|---|
| Airport | San Francisco International Airport (KSFO) |
Arrival
| Time | 2026-05-05 08:52 |
|---|---|
| Airport | Rome–Fiumicino Leonardo da Vinci International Airport (LIRF) |
| Time | Latitude | Longitude | Altitude | Speed | Heading |
|---|---|---|---|---|---|
| 2026-05-05 06:26 | 55.16287 | -6.91215 | 39096 ft | 501 kts | 143° |
| 2026-05-05 06:26 | 55.10828 | -6.83683 | 39088 ft | 500 kts | 143° |
| 2026-05-05 06:27 | 55.02611 | -6.72398 | 39088 ft | 500 kts | 143° |
| 2026-05-05 06:28 | 54.97133 | -6.64908 | 39129 ft | 502 kts | 143° |
| 2026-05-05 06:28 | 54.94461 | -6.60996 | 39334 ft | 502 kts | 137° |
| 2026-05-05 06:28 | 54.91962 | -6.56767 | 39538 ft | 501 kts | 136° |
| 2026-05-05 06:28 | 54.89530 | -6.52529 | 39709 ft | 501 kts | 136° |
| 2026-05-05 06:29 | 54.87060 | -6.48166 | 39890 ft | 501 kts | 135° |
| 2026-05-05 06:29 | 54.84611 | -6.43821 | 40049 ft | 501 kts | 135° |
| 2026-05-05 06:29 | 54.82202 | -6.39551 | 40210 ft | 501 kts | 135° |
| 2026-05-05 06:29 | 54.79765 | -6.35247 | 40348 ft | 501 kts | 136° |
| 2026-05-05 06:30 | 54.77318 | -6.30940 | 40510 ft | 501 kts | 136° |
| 2026-05-05 06:30 | 54.74868 | -6.26644 | 40655 ft | 501 kts | 136° |
| 2026-05-05 06:30 | 54.72417 | -6.22357 | 40808 ft | 501 kts | 136° |
| 2026-05-05 06:30 | 54.69960 | -6.18070 | 40937 ft | 501 kts | 136° |
| 2026-05-05 06:31 | 54.67499 | -6.13785 | 41048 ft | 502 kts | 136° |
| 2026-05-05 06:31 | 54.62570 | -6.05224 | 41072 ft | 502 kts | 136° |
| 2026-05-05 06:32 | 54.57636 | -5.96685 | 41075 ft | 501 kts | 136° |
| 2026-05-05 06:32 | 54.52730 | -5.88166 | 41069 ft | 501 kts | 134° |
| 2026-05-05 06:33 | 54.48470 | -5.78647 | 41071 ft | 502 kts | 126° |
| 2026-05-05 06:33 | 54.44522 | -5.68854 | 41071 ft | 502 kts | 125° |
| 2026-05-05 06:34 | 54.40536 | -5.59013 | 41064 ft | 501 kts | 129° |
| 2026-05-05 06:34 | 54.35805 | -5.50289 | 41067 ft | 499 kts | 136° |
| 2026-05-05 06:35 | 54.30822 | -5.41972 | 41068 ft | 499 kts | 137° |
| 2026-05-05 06:35 | 54.25810 | -5.33746 | 41065 ft | 499 kts | 137° |
| 2026-05-05 06:36 | 54.20806 | -5.25527 | 41060 ft | 499 kts | 137° |
| 2026-05-05 06:36 | 54.15798 | -5.17298 | 41061 ft | 499 kts | 137° |
| 2026-05-05 06:37 | 54.10797 | -5.09101 | 41057 ft | 499 kts | 137° |
| 2026-05-05 06:37 | 54.05787 | -5.00918 | 41052 ft | 498 kts | 137° |
| 2026-05-05 06:38 | 54.00781 | -4.92771 | 41048 ft | 498 kts | 137° |
| 2026-05-05 06:38 | 53.96101 | -4.84144 | 41050 ft | 499 kts | 129° |
| 2026-05-05 06:39 | 53.91920 | -4.74730 | 41046 ft | 499 kts | 127° |
| 2026-05-05 06:39 | 53.87815 | -4.65239 | 41047 ft | 499 kts | 127° |
| 2026-05-05 06:40 | 53.83695 | -4.55755 | 41046 ft | 499 kts | 127° |
| 2026-05-05 06:40 | 53.79559 | -4.46317 | 41047 ft | 499 kts | 127° |
| 2026-05-05 06:41 | 53.75418 | -4.36918 | 41047 ft | 499 kts | 128° |
| 2026-05-05 06:41 | 53.71266 | -4.27523 | 41056 ft | 498 kts | 128° |
| 2026-05-05 06:42 | 53.67137 | -4.18215 | 41051 ft | 498 kts | 128° |
| 2026-05-05 06:42 | 53.62975 | -4.08870 | 41049 ft | 498 kts | 128° |
| 2026-05-05 06:43 | 53.58805 | -3.99549 | 41051 ft | 498 kts | 128° |
| 2026-05-05 06:43 | 53.54634 | -3.90251 | 41055 ft | 497 kts | 128° |
| 2026-05-05 06:44 | 53.50463 | -3.80987 | 41056 ft | 497 kts | 128° |
| 2026-05-05 06:44 | 53.46279 | -3.71731 | 41053 ft | 497 kts | 128° |
| 2026-05-05 06:45 | 53.42098 | -3.62515 | 41055 ft | 496 kts | 128° |
| 2026-05-05 06:45 | 53.37806 | -3.53554 | 41053 ft | 496 kts | 132° |
| 2026-05-05 06:46 | 53.33188 | -3.44982 | 41059 ft | 496 kts | 133° |
| 2026-05-05 06:46 | 53.28532 | -3.36395 | 41047 ft | 496 kts | 133° |
| 2026-05-05 06:47 | 53.23949 | -3.27792 | 41051 ft | 495 kts | 132° |
| 2026-05-05 06:47 | 53.19386 | -3.19179 | 41047 ft | 495 kts | 132° |
| 2026-05-05 06:48 | 53.14853 | -3.10643 | 41043 ft | 495 kts | 132° |
| 2026-05-05 06:48 | 53.10272 | -3.02060 | 41060 ft | 494 kts | 132° |
| 2026-05-05 06:49 | 53.05700 | -2.93528 | 41041 ft | 494 kts | 132° |
| 2026-05-05 06:49 | 53.01120 | -2.85008 | 41059 ft | 494 kts | 132° |
| 2026-05-05 06:50 | 52.96539 | -2.76516 | 41039 ft | 494 kts | 133° |
| 2026-05-05 06:50 | 52.91948 | -2.68037 | 41045 ft | 494 kts | 133° |
| 2026-05-05 06:51 | 52.87352 | -2.59575 | 41038 ft | 494 kts | 133° |
| 2026-05-05 06:51 | 52.82744 | -2.51158 | 41051 ft | 493 kts | 134° |
| 2026-05-05 06:52 | 52.77465 | -2.43972 | 41036 ft | 491 kts | 146° |
| 2026-05-05 06:52 | 52.71801 | -2.37630 | 41047 ft | 492 kts | 147° |
| 2026-05-05 06:53 | 52.66130 | -2.31467 | 41046 ft | 492 kts | 147° |
| 2026-05-05 06:53 | 52.60429 | -2.25252 | 41030 ft | 491 kts | 147° |
| 2026-05-05 06:54 | 52.54724 | -2.19031 | 41039 ft | 491 kts | 147° |
| 2026-05-05 06:54 | 52.49027 | -2.12826 | 41038 ft | 491 kts | 147° |
| 2026-05-05 06:55 | 52.43334 | -2.06642 | 41043 ft | 491 kts | 147° |
| 2026-05-05 06:55 | 52.37649 | -2.00474 | 41043 ft | 490 kts | 147° |
| 2026-05-05 06:56 | 52.31954 | -1.94314 | 41043 ft | 490 kts | 148° |
| 2026-05-05 06:56 | 52.26250 | -1.88191 | 41041 ft | 490 kts | 148° |
| 2026-05-05 06:57 | 52.20559 | -1.82086 | 41035 ft | 490 kts | 148° |
| 2026-05-05 06:57 | 52.14852 | -1.75989 | 41024 ft | 490 kts | 148° |
| 2026-05-05 06:58 | 52.09188 | -1.69953 | 41024 ft | 490 kts | 147° |
| 2026-05-05 06:58 | 52.03488 | -1.63870 | 41020 ft | 490 kts | 148° |
| 2026-05-05 06:59 | 51.97780 | -1.57806 | 41019 ft | 490 kts | 148° |
| 2026-05-05 06:59 | 51.92064 | -1.51794 | 41018 ft | 490 kts | 148° |
| 2026-05-05 07:00 | 51.87314 | -1.46810 | 41020 ft | 490 kts | 148° |
| 2026-05-05 07:00 | 51.81594 | -1.40799 | 41020 ft | 490 kts | 148° |
| 2026-05-05 07:01 | 51.75879 | -1.34819 | 41021 ft | 489 kts | 148° |
| 2026-05-05 07:01 | 51.70163 | -1.28847 | 41019 ft | 489 kts | 148° |
| 2026-05-05 07:02 | 51.64445 | -1.22902 | 40992 ft | 489 kts | 148° |
| 2026-05-05 07:02 | 51.58717 | -1.16964 | 40994 ft | 489 kts | 148° |
| 2026-05-05 07:03 | 51.52995 | -1.11048 | 40992 ft | 489 kts | 148° |
| 2026-05-05 07:03 | 51.47271 | -1.05145 | 40994 ft | 489 kts | 148° |
| 2026-05-05 07:04 | 51.41543 | -0.99247 | 40992 ft | 489 kts | 148° |
| 2026-05-05 07:04 | 51.35817 | -0.93382 | 40992 ft | 489 kts | 148° |
| 2026-05-05 07:05 | 51.30117 | -0.87564 | 40993 ft | 489 kts | 148° |
| 2026-05-05 07:05 | 51.25308 | -0.82665 | 40994 ft | 489 kts | 148° |
| 2026-05-05 07:06 | 51.18623 | -0.75874 | 40994 ft | 490 kts | 148° |
| 2026-05-05 07:06 | 51.12870 | -0.70048 | 40988 ft | 490 kts | 149° |
| 2026-05-05 07:07 | 51.07118 | -0.64242 | 40983 ft | 491 kts | 149° |
| 2026-05-05 07:07 | 51.01371 | -0.58346 | 40969 ft | 491 kts | 147° |
| 2026-05-05 07:08 | 50.95716 | -0.52255 | 40968 ft | 491 kts | 147° |
| 2026-05-05 07:08 | 50.90075 | -0.46184 | 40965 ft | 491 kts | 147° |
| 2026-05-05 07:09 | 50.84408 | -0.40150 | 40967 ft | 490 kts | 147° |
| 2026-05-05 07:09 | 50.78766 | -0.34183 | 40964 ft | 490 kts | 148° |
| 2026-05-05 07:10 | 50.73092 | -0.28206 | 40965 ft | 489 kts | 148° |
| 2026-05-05 07:10 | 50.67431 | -0.22250 | 40966 ft | 489 kts | 148° |
| 2026-05-05 07:11 | 50.61767 | -0.16314 | 40963 ft | 488 kts | 148° |
| 2026-05-05 07:11 | 50.56113 | -0.10409 | 40959 ft | 487 kts | 148° |
| 2026-05-05 07:12 | 50.50462 | -0.04522 | 40956 ft | 487 kts | 148° |
| 2026-05-05 07:12 | 50.44818 | 0.01340 | 40958 ft | 486 kts | 148° |
| 2026-05-05 07:13 | 50.39182 | 0.07187 | 40955 ft | 485 kts | 148° |
| 2026-05-05 07:13 | 50.33543 | 0.13016 | 40951 ft | 485 kts | 148° |
| 2026-05-05 07:14 | 50.29813 | 0.16855 | 40949 ft | 484 kts | 148° |
| 2026-05-05 07:14 | 50.22288 | 0.24579 | 40948 ft | 484 kts | 148° |
| 2026-05-05 07:15 | 50.16709 | 0.30310 | 40939 ft | 483 kts | 148° |
| 2026-05-05 07:15 | 50.11090 | 0.36088 | 40943 ft | 483 kts | 148° |
| 2026-05-05 07:16 | 50.05486 | 0.41828 | 40940 ft | 482 kts | 148° |
| 2026-05-05 07:16 | 49.99879 | 0.47555 | 40944 ft | 482 kts | 148° |
| 2026-05-05 07:17 | 49.94265 | 0.53271 | 40930 ft | 482 kts | 148° |
| 2026-05-05 07:17 | 49.88657 | 0.58966 | 40924 ft | 481 kts | 148° |
| 2026-05-05 07:18 | 49.83230 | 0.65066 | 40926 ft | 483 kts | 143° |
| 2026-05-05 07:18 | 49.78006 | 0.71585 | 40922 ft | 483 kts | 142° |
| 2026-05-05 07:19 | 49.72796 | 0.78162 | 40919 ft | 482 kts | 142° |
| 2026-05-05 07:19 | 49.67595 | 0.84703 | 40912 ft | 482 kts | 142° |
| 2026-05-05 07:20 | 49.62382 | 0.91220 | 40911 ft | 482 kts | 142° |
| 2026-05-05 07:20 | 49.57160 | 0.97722 | 40910 ft | 482 kts | 143° |
| 2026-05-05 07:21 | 49.51971 | 1.04164 | 40910 ft | 482 kts | 143° |
| 2026-05-05 07:21 | 49.46754 | 1.10623 | 40912 ft | 482 kts | 143° |
| 2026-05-05 07:22 | 49.41525 | 1.17081 | 40910 ft | 482 kts | 143° |
| 2026-05-05 07:22 | 49.36302 | 1.23525 | 40909 ft | 481 kts | 143° |
| 2026-05-05 07:23 | 49.31071 | 1.29945 | 40910 ft | 481 kts | 143° |
| 2026-05-05 07:23 | 49.25839 | 1.36347 | 40903 ft | 481 kts | 143° |
| 2026-05-05 07:24 | 49.20614 | 1.42726 | 40883 ft | 481 kts | 143° |
| 2026-05-05 07:24 | 49.15375 | 1.49108 | 40880 ft | 481 kts | 143° |
| 2026-05-05 07:25 | 49.10147 | 1.55458 | 40882 ft | 481 kts | 143° |
| 2026-05-05 07:25 | 49.04901 | 1.61811 | 40877 ft | 481 kts | 143° |
| 2026-05-05 07:26 | 48.99665 | 1.68135 | 40876 ft | 481 kts | 143° |
| 2026-05-05 07:26 | 48.94424 | 1.74449 | 40874 ft | 481 kts | 143° |
| 2026-05-05 07:27 | 48.89177 | 1.80751 | 40863 ft | 481 kts | 143° |
| 2026-05-05 07:27 | 48.83959 | 1.87002 | 40859 ft | 481 kts | 143° |
| 2026-05-05 07:28 | 48.78672 | 1.93318 | 40854 ft | 481 kts | 143° |
| 2026-05-05 07:28 | 48.76749 | 1.95610 | 40856 ft | 481 kts | 143° |
| 2026-05-05 07:29 | 48.71699 | 2.01621 | 40861 ft | 481 kts | 143° |
| 2026-05-05 07:29 | 48.66425 | 2.07880 | 40852 ft | 481 kts | 143° |
| 2026-05-05 07:30 | 48.61155 | 2.14120 | 40850 ft | 481 kts | 143° |
| 2026-05-05 07:30 | 48.53594 | 2.24120 | 40848 ft | 483 kts | 137° |
| 2026-05-05 07:31 | 48.48848 | 2.31305 | 40860 ft | 483 kts | 136° |
| 2026-05-05 07:31 | 48.44123 | 2.38497 | 40858 ft | 483 kts | 136° |
| 2026-05-05 07:32 | 48.39381 | 2.45676 | 40857 ft | 483 kts | 136° |
| 2026-05-05 07:32 | 48.34623 | 2.52841 | 40857 ft | 484 kts | 137° |
| 2026-05-05 07:33 | 48.29844 | 2.59849 | 40851 ft | 483 kts | 141° |
| 2026-05-05 07:33 | 48.24238 | 2.65273 | 40853 ft | 479 kts | 155° |
| 2026-05-05 07:34 | 48.19239 | 2.68893 | 40854 ft | 480 kts | 155° |
| 2026-05-05 07:34 | 48.12335 | 2.74403 | 40853 ft | 481 kts | 153° |
| 2026-05-05 07:35 | 48.06375 | 2.78955 | 40850 ft | 481 kts | 157° |
| 2026-05-05 07:35 | 48.00247 | 2.82962 | 40844 ft | 481 kts | 158° |
| 2026-05-05 07:36 | 47.97164 | 2.84923 | 40846 ft | 481 kts | 158° |
| 2026-05-05 07:36 | 47.88414 | 2.90445 | 40850 ft | 481 kts | 159° |
| 2026-05-05 07:37 | 47.82244 | 2.94338 | 40845 ft | 482 kts | 159° |
| 2026-05-05 07:37 | 47.76062 | 2.98236 | 40847 ft | 482 kts | 159° |
| 2026-05-05 07:38 | 47.69892 | 3.02119 | 40842 ft | 481 kts | 159° |
| 2026-05-05 07:38 | 47.63722 | 3.05991 | 40841 ft | 481 kts | 159° |
| 2026-05-05 07:39 | 47.57591 | 3.09828 | 40838 ft | 481 kts | 159° |
| 2026-05-05 07:39 | 47.51415 | 3.13688 | 40838 ft | 481 kts | 159° |
| 2026-05-05 07:40 | 47.45247 | 3.17528 | 40838 ft | 481 kts | 159° |
| 2026-05-05 07:40 | 47.39087 | 3.21346 | 40849 ft | 480 kts | 159° |
| 2026-05-05 07:41 | 47.32925 | 3.25159 | 40850 ft | 480 kts | 159° |
| 2026-05-05 07:41 | 47.26771 | 3.28959 | 40847 ft | 479 kts | 159° |
| 2026-05-05 07:42 | 47.20619 | 3.32749 | 40848 ft | 479 kts | 160° |
| 2026-05-05 07:42 | 47.14470 | 3.36527 | 40845 ft | 479 kts | 160° |
| 2026-05-05 07:43 | 47.08312 | 3.40302 | 40842 ft | 478 kts | 160° |
| 2026-05-05 07:43 | 47.02205 | 3.44035 | 40850 ft | 478 kts | 160° |
| 2026-05-05 07:44 | 46.96061 | 3.47782 | 40852 ft | 478 kts | 160° |
| 2026-05-05 07:44 | 46.89918 | 3.51519 | 40855 ft | 478 kts | 160° |
| 2026-05-05 07:45 | 46.83778 | 3.55245 | 40850 ft | 477 kts | 160° |
| 2026-05-05 07:45 | 46.77736 | 3.59298 | 40854 ft | 480 kts | 152° |
| 2026-05-05 07:46 | 46.72553 | 3.65493 | 40860 ft | 487 kts | 134° |
| 2026-05-05 07:46 | 46.68997 | 3.73918 | 40862 ft | 495 kts | 114° |
| 2026-05-05 07:47 | 46.67071 | 3.83611 | 40870 ft | 499 kts | 106° |
| 2026-05-05 07:47 | 46.65463 | 3.93447 | 40870 ft | 500 kts | 106° |
| 2026-05-05 07:48 | 46.63845 | 4.03232 | 40878 ft | 500 kts | 107° |
| 2026-05-05 07:48 | 46.62154 | 4.13039 | 40876 ft | 500 kts | 107° |
| 2026-05-05 07:49 | 46.60435 | 4.22839 | 40879 ft | 500 kts | 107° |
| 2026-05-05 07:49 | 46.58707 | 4.32643 | 40876 ft | 500 kts | 107° |
| 2026-05-05 07:50 | 46.56975 | 4.42436 | 40877 ft | 500 kts | 107° |
| 2026-05-05 07:50 | 46.55235 | 4.52225 | 40874 ft | 501 kts | 107° |
| 2026-05-05 07:51 | 46.53484 | 4.62025 | 40876 ft | 501 kts | 107° |
| 2026-05-05 07:51 | 46.51727 | 4.71807 | 40876 ft | 501 kts | 107° |
| 2026-05-05 07:52 | 46.49958 | 4.81603 | 40878 ft | 501 kts | 108° |
| 2026-05-05 07:52 | 46.48181 | 4.91389 | 40882 ft | 502 kts | 108° |
| 2026-05-05 07:53 | 46.46395 | 5.01176 | 40873 ft | 502 kts | 108° |
| 2026-05-05 07:53 | 46.44601 | 5.10952 | 40868 ft | 502 kts | 108° |
| 2026-05-05 07:54 | 46.42804 | 5.20735 | 40868 ft | 502 kts | 108° |
| 2026-05-05 07:54 | 46.40989 | 5.30525 | 40880 ft | 502 kts | 108° |
| 2026-05-05 07:55 | 46.38855 | 5.40115 | 40882 ft | 498 kts | 118° |
| 2026-05-05 07:55 | 46.35130 | 5.48438 | 40870 ft | 490 kts | 132° |
| 2026-05-05 07:56 | 46.30744 | 5.55996 | 40881 ft | 490 kts | 134° |
| 2026-05-05 07:56 | 46.26271 | 5.63443 | 40883 ft | 490 kts | 134° |
| 2026-05-05 07:57 | 46.21811 | 5.70895 | 40894 ft | 490 kts | 134° |
| 2026-05-05 07:57 | 46.17659 | 5.77868 | 40904 ft | 490 kts | 134° |
| 2026-05-05 07:58 | 46.13214 | 5.85331 | 40908 ft | 491 kts | 134° |
| 2026-05-05 07:58 | 46.08768 | 5.92782 | 40906 ft | 490 kts | 134° |
| 2026-05-05 07:59 | 46.04313 | 6.00217 | 40909 ft | 490 kts | 134° |
| 2026-05-05 07:59 | 45.99885 | 6.07588 | 40907 ft | 490 kts | 134° |
| 2026-05-05 08:00 | 45.95400 | 6.15034 | 40911 ft | 489 kts | 135° |
| 2026-05-05 08:00 | 45.90938 | 6.22423 | 40910 ft | 489 kts | 135° |
| 2026-05-05 08:01 | 45.86489 | 6.29770 | 40914 ft | 489 kts | 135° |
| 2026-05-05 08:01 | 45.83577 | 6.34568 | 40913 ft | 489 kts | 135° |
| 2026-05-05 08:02 | 45.78674 | 6.41230 | 40907 ft | 482 kts | 146° |
| 2026-05-05 08:02 | 45.73273 | 6.46897 | 40908 ft | 481 kts | 148° |
| 2026-05-05 08:03 | 45.67797 | 6.52419 | 40910 ft | 481 kts | 149° |
| 2026-05-05 08:03 | 45.62304 | 6.57946 | 40910 ft | 481 kts | 148° |
| 2026-05-05 08:04 | 45.56833 | 6.63472 | 40913 ft | 482 kts | 148° |
| 2026-05-05 08:04 | 45.51371 | 6.68989 | 40918 ft | 482 kts | 148° |
| 2026-05-05 08:05 | 45.46822 | 6.73575 | 40936 ft | 482 kts | 148° |
| 2026-05-05 08:05 | 45.41335 | 6.79091 | 40936 ft | 482 kts | 148° |
| 2026-05-05 08:06 | 45.35853 | 6.84590 | 40947 ft | 482 kts | 148° |
| 2026-05-05 08:06 | 45.30378 | 6.90068 | 40960 ft | 482 kts | 148° |
| 2026-05-05 08:07 | 45.25081 | 6.95940 | 40974 ft | 486 kts | 141° |
| 2026-05-05 08:07 | 45.20173 | 7.02556 | 40988 ft | 487 kts | 140° |
| 2026-05-05 08:08 | 45.15326 | 7.09258 | 40984 ft | 487 kts | 139° |
| 2026-05-05 08:08 | 45.10955 | 7.15512 | 40991 ft | 490 kts | 134° |
| 2026-05-05 08:09 | 45.06847 | 7.23269 | 40995 ft | 493 kts | 129° |
| 2026-05-05 08:09 | 45.02899 | 7.31215 | 40992 ft | 494 kts | 128° |
| 2026-05-05 08:10 | 44.98937 | 7.39135 | 40988 ft | 492 kts | 132° |
| 2026-05-05 08:10 | 44.94338 | 7.46210 | 41007 ft | 488 kts | 138° |
| 2026-05-05 08:11 | 44.89526 | 7.52985 | 41002 ft | 488 kts | 139° |
| 2026-05-05 08:11 | 44.84675 | 7.59700 | 40996 ft | 489 kts | 139° |
| 2026-05-05 08:12 | 44.79826 | 7.66419 | 40983 ft | 490 kts | 139° |
| 2026-05-05 08:12 | 44.74970 | 7.73155 | 40983 ft | 490 kts | 139° |
| 2026-05-05 08:13 | 44.70111 | 7.79887 | 40987 ft | 491 kts | 139° |
| 2026-05-05 08:13 | 44.65239 | 7.86619 | 40998 ft | 491 kts | 139° |
| 2026-05-05 08:14 | 44.60398 | 7.93290 | 40995 ft | 491 kts | 139° |
| 2026-05-05 08:14 | 44.55511 | 8.00006 | 40982 ft | 492 kts | 140° |
| 2026-05-05 08:15 | 44.50610 | 8.06726 | 40980 ft | 492 kts | 140° |
| 2026-05-05 08:15 | 44.45710 | 8.13427 | 40984 ft | 492 kts | 140° |
| 2026-05-05 08:16 | 44.40808 | 8.20114 | 40965 ft | 493 kts | 140° |
| 2026-05-05 08:16 | 44.35904 | 8.26790 | 40969 ft | 493 kts | 140° |
| 2026-05-05 08:17 | 44.30982 | 8.33473 | 40954 ft | 493 kts | 140° |
| 2026-05-05 08:17 | 44.26050 | 8.40152 | 40957 ft | 493 kts | 140° |
| 2026-05-05 08:18 | 44.21122 | 8.46809 | 40951 ft | 493 kts | 140° |
| 2026-05-05 08:18 | 44.16219 | 8.53416 | 40949 ft | 494 kts | 140° |
| 2026-05-05 08:19 | 44.11238 | 8.60113 | 40943 ft | 495 kts | 140° |
| 2026-05-05 08:19 | 44.06280 | 8.66761 | 40943 ft | 495 kts | 140° |
| 2026-05-05 08:20 | 44.01312 | 8.73408 | 40943 ft | 496 kts | 140° |
| 2026-05-05 08:20 | 43.96372 | 8.80000 | 40940 ft | 496 kts | 140° |
| 2026-05-05 08:21 | 43.91383 | 8.86642 | 40939 ft | 497 kts | 140° |
| 2026-05-05 08:21 | 43.86384 | 8.93280 | 40941 ft | 497 kts | 140° |
| 2026-05-05 08:22 | 43.81380 | 8.99909 | 40941 ft | 498 kts | 140° |
| 2026-05-05 08:22 | 43.76367 | 9.06533 | 40941 ft | 499 kts | 140° |
| 2026-05-05 08:23 | 43.71347 | 9.13151 | 40942 ft | 499 kts | 140° |
| 2026-05-05 08:23 | 43.66315 | 9.19768 | 40944 ft | 499 kts | 140° |
| 2026-05-05 08:24 | 43.61273 | 9.26383 | 40961 ft | 500 kts | 140° |
| 2026-05-05 08:24 | 43.56230 | 9.32983 | 40956 ft | 500 kts | 140° |
| 2026-05-05 08:25 | 43.51177 | 9.39580 | 40948 ft | 500 kts | 140° |
| 2026-05-05 08:25 | 43.46118 | 9.46168 | 40951 ft | 501 kts | 141° |
| 2026-05-05 08:26 | 43.41049 | 9.52753 | 40955 ft | 501 kts | 140° |
| 2026-05-05 08:26 | 43.35974 | 9.59331 | 40959 ft | 502 kts | 141° |
| 2026-05-05 08:27 | 43.30888 | 9.65906 | 40962 ft | 502 kts | 141° |
| 2026-05-05 08:27 | 43.25798 | 9.72473 | 40962 ft | 502 kts | 141° |
| 2026-05-05 08:28 | 43.20701 | 9.79030 | 40967 ft | 503 kts | 141° |
| 2026-05-05 08:28 | 43.15592 | 9.85589 | 40967 ft | 503 kts | 141° |
| 2026-05-05 08:29 | 43.10483 | 9.92130 | 40966 ft | 503 kts | 141° |
| 2026-05-05 08:30 | 43.03087 | 10.01574 | 40971 ft | 503 kts | 141° |
| 2026-05-05 08:30 | 42.98006 | 10.08042 | 40966 ft | 503 kts | 141° |
| 2026-05-05 08:31 | 42.92878 | 10.14555 | 40967 ft | 503 kts | 141° |
| 2026-05-05 08:31 | 42.87749 | 10.21054 | 40969 ft | 504 kts | 141° |
| 2026-05-05 08:32 | 42.82605 | 10.27556 | 40973 ft | 504 kts | 141° |
| 2026-05-05 08:32 | 42.77596 | 10.34198 | 40514 ft | 504 kts | 134° |
| 2026-05-05 08:32 | 42.75506 | 10.38074 | 39695 ft | 514 kts | 124° |
| 2026-05-05 08:33 | 42.73903 | 10.42467 | 38897 ft | 523 kts | 114° |
| 2026-05-05 08:33 | 42.72892 | 10.47261 | 37963 ft | 532 kts | 102° |
| 2026-05-05 08:33 | 42.72495 | 10.52283 | 37092 ft | 536 kts | 94° |
| 2026-05-05 08:33 | 42.72321 | 10.57360 | 36263 ft | 538 kts | 94° |
| 2026-05-05 08:34 | 42.71972 | 10.62418 | 35421 ft | 537 kts | 103° |
| 2026-05-05 08:34 | 42.70844 | 10.67232 | 34615 ft | 532 kts | 118° |
| 2026-05-05 08:34 | 42.69028 | 10.71592 | 33816 ft | 530 kts | 126° |
| 2026-05-05 08:34 | 42.67037 | 10.75802 | 32945 ft | 530 kts | 127° |
| 2026-05-05 08:35 | 42.65041 | 10.80018 | 32046 ft | 531 kts | 126° |
| 2026-05-05 08:35 | 42.63058 | 10.84255 | 31128 ft | 532 kts | 126° |
| 2026-05-05 08:35 | 42.61076 | 10.88517 | 30208 ft | 533 kts | 126° |
| 2026-05-05 08:35 | 42.60413 | 10.89949 | 29863 ft | 534 kts | 126° |
| 2026-05-05 08:36 | 42.55370 | 11.00851 | 27668 ft | 525 kts | 125° |
| 2026-05-05 08:36 | 42.53447 | 11.05012 | 26717 ft | 517 kts | 125° |
| 2026-05-05 08:36 | 42.51548 | 11.09112 | 25770 ft | 511 kts | 125° |
| 2026-05-05 08:37 | 42.49683 | 11.13177 | 25019 ft | 501 kts | 124° |
| 2026-05-05 08:37 | 42.47944 | 11.17215 | 23911 ft | 494 kts | 122° |
| 2026-05-05 08:37 | 42.46302 | 11.21273 | 22699 ft | 486 kts | 121° |
| 2026-05-05 08:37 | 42.44696 | 11.25243 | 21452 ft | 477 kts | 122° |
| 2026-05-05 08:38 | 42.43105 | 11.29148 | 20299 ft | 469 kts | 122° |
| 2026-05-05 08:38 | 42.41537 | 11.32971 | 19184 ft | 460 kts | 122° |
| 2026-05-05 08:38 | 42.39997 | 11.36710 | 18045 ft | 451 kts | 122° |
| 2026-05-05 08:38 | 42.38479 | 11.40385 | 16820 ft | 444 kts | 122° |
| 2026-05-05 08:39 | 42.36982 | 11.44000 | 15590 ft | 437 kts | 122° |
| 2026-05-05 08:39 | 42.35509 | 11.47550 | 14429 ft | 430 kts | 122° |
| 2026-05-05 08:39 | 42.34064 | 11.51031 | 13668 ft | 413 kts | 122° |
| 2026-05-05 08:39 | 42.32711 | 11.54296 | 13057 ft | 384 kts | 122° |
| 2026-05-05 08:40 | 42.31450 | 11.57337 | 12527 ft | 359 kts | 123° |
| 2026-05-05 08:40 | 42.30264 | 11.60188 | 12033 ft | 337 kts | 123° |
| 2026-05-05 08:40 | 42.29150 | 11.62856 | 11401 ft | 325 kts | 123° |
| 2026-05-05 08:40 | 42.28032 | 11.65525 | 10633 ft | 319 kts | 123° |
| 2026-05-05 08:41 | 42.26963 | 11.68075 | 9979 ft | 311 kts | 123° |
| 2026-05-05 08:41 | 42.25915 | 11.70577 | 9547 ft | 306 kts | 123° |
| 2026-05-05 08:41 | 42.24871 | 11.73065 | 9208 ft | 304 kts | 123° |
| 2026-05-05 08:41 | 42.23835 | 11.75536 | 8859 ft | 301 kts | 123° |
| 2026-05-05 08:42 | 42.22804 | 11.77991 | 8558 ft | 300 kts | 123° |
| 2026-05-05 08:42 | 42.21782 | 11.80427 | 8215 ft | 297 kts | 123° |
| 2026-05-05 08:42 | 42.20767 | 11.82843 | 7909 ft | 295 kts | 123° |
| 2026-05-05 08:42 | 42.19755 | 11.85248 | 7598 ft | 294 kts | 123° |
| 2026-05-05 08:43 | 42.18749 | 11.87642 | 7255 ft | 293 kts | 123° |
| 2026-05-05 08:43 | 42.17748 | 11.90019 | 6910 ft | 292 kts | 124° |
| 2026-05-05 08:43 | 42.16745 | 11.92395 | 6585 ft | 290 kts | 123° |
| 2026-05-05 08:43 | 42.15758 | 11.94739 | 6256 ft | 286 kts | 123° |
| 2026-05-05 08:44 | 42.14777 | 11.97063 | 5957 ft | 283 kts | 123° |
| 2026-05-05 08:44 | 42.13806 | 11.99354 | 5641 ft | 280 kts | 123° |
| 2026-05-05 08:44 | 42.12840 | 12.01636 | 5347 ft | 280 kts | 123° |
| 2026-05-05 08:44 | 42.11836 | 12.03878 | 5073 ft | 276 kts | 130° |
| 2026-05-05 08:45 | 42.10625 | 12.05847 | 4888 ft | 270 kts | 136° |
| 2026-05-05 08:45 | 42.09350 | 12.07707 | 4740 ft | 270 kts | 137° |
| 2026-05-05 08:45 | 42.08081 | 12.09548 | 4619 ft | 267 kts | 137° |
| 2026-05-05 08:45 | 42.06881 | 12.11213 | 4468 ft | 262 kts | 144° |
| 2026-05-05 08:46 | 42.05402 | 12.12487 | 4346 ft | 245 kts | 160° |
| 2026-05-05 08:46 | 42.03844 | 12.13273 | 4208 ft | 234 kts | 166° |
| 2026-05-05 08:46 | 42.02318 | 12.13892 | 4075 ft | 225 kts | 167° |
| 2026-05-05 08:46 | 42.00853 | 12.14495 | 3936 ft | 216 kts | 167° |
| 2026-05-05 08:47 | 41.99439 | 12.15092 | 3730 ft | 211 kts | 166° |
| 2026-05-05 08:47 | 41.98060 | 12.15684 | 3456 ft | 206 kts | 166° |
| 2026-05-05 08:47 | 41.97502 | 12.15922 | 3341 ft | 204 kts | 166° |
| 2026-05-05 08:48 | 41.97195 | 12.16052 | 3264 ft | 203 kts | 166° |
| 2026-05-05 08:48 | 41.95854 | 12.16617 | 2994 ft | 199 kts | 166° |
| 2026-05-05 08:48 | 41.94571 | 12.17159 | 2747 ft | 188 kts | 166° |
| 2026-05-05 08:48 | 41.93349 | 12.17673 | 2465 ft | 180 kts | 166° |
| 2026-05-05 08:49 | 41.92198 | 12.18158 | 2233 ft | 166 kts | 166° |
| 2026-05-05 08:49 | 41.91138 | 12.18603 | 2020 ft | 153 kts | 164° |
| 2026-05-05 08:49 | 41.90163 | 12.19014 | 1819 ft | 141 kts | 163° |
| 2026-05-05 08:49 | 41.89264 | 12.19397 | 1626 ft | 129 kts | 164° |
| 2026-05-05 08:50 | 41.88438 | 12.19744 | 1462 ft | 122 kts | 165° |
| 2026-05-05 08:50 | 41.87624 | 12.20084 | 1303 ft | 123 kts | 164° |
| 2026-05-05 08:50 | 41.86804 | 12.20429 | 1129 ft | 124 kts | 163° |
| 2026-05-05 08:50 | 41.85978 | 12.20774 | 967 ft | 125 kts | 162° |
| 2026-05-05 08:51 | 41.85151 | 12.21116 | 748 ft | 123 kts | 161° |
| 2026-05-05 08:51 | 41.84326 | 12.21462 | 590 ft | 125 kts | 160° |
| 2026-05-05 08:51 | 41.83499 | 12.21830 | 476 ft | 128 kts | 160° |
| 2026-05-05 08:51 | 41.82637 | 12.22179 | 303 ft | 131 kts | 159° |
| 2026-05-05 08:52 | 41.81787 | 12.22538 | 108 ft | 129 kts | 161° |
| 2026-05-05 08:52 | 41.80965 | 12.22886 | 26 ft | 118 kts | 163° |
| 2026-05-05 08:52 | 41.80317 | 12.23156 | 22 ft | 76 kts | 163° |
| 2026-05-05 08:52 | 41.79952 | 12.23305 | 27 ft | 34 kts | 162° |
| 2026-05-05 08:53 | 41.79732 | 12.23399 | 21 ft | 31 kts | 162° |
| 2026-05-05 08:53 | 41.79582 | 12.23485 | 19 ft | 22 kts | 148° |
| 2026-05-05 08:53 | 41.79463 | 12.23604 | 21 ft | 21 kts | 133° |
| 2026-05-05 08:53 | 41.79367 | 12.23745 | 21 ft | 15 kts | 131° |
| 2026-05-05 08:54 | 41.79332 | 12.23804 | 21 ft | 7 kts | 123° |
| 2026-05-05 08:54 | 41.79316 | 12.23874 | 22 ft | 9 kts | 95° |
| 2026-05-05 08:54 | 41.79334 | 12.23966 | 21 ft | 12 kts | 71° |
| 2026-05-05 08:54 | 41.79381 | 12.24016 | 20 ft | 10 kts | 358° |
| 2026-05-05 08:55 | 41.79455 | 12.23983 | 20 ft | 13 kts | 340° |
| 2026-05-05 08:55 | 41.79549 | 12.23937 | 20 ft | 16 kts | 340° |
| 2026-05-05 08:55 | 41.79655 | 12.23883 | 20 ft | 11 kts | 338° |
| 2026-05-05 08:55 | 41.79709 | 12.23918 | 20 ft | 10 kts | 62° |
| 2026-05-05 08:56 | 41.79739 | 12.24017 | 20 ft | 13 kts | 69° |
| 2026-05-05 08:56 | 41.79771 | 12.24137 | 20 ft | 15 kts | 69° |
| 2026-05-05 08:56 | 41.79812 | 12.24278 | 20 ft | 17 kts | 69° |
| 2026-05-05 08:56 | 41.79847 | 12.24383 | 22 ft | 10 kts | 48° |
| 2026-05-05 08:57 | 41.79901 | 12.24448 | 20 ft | 12 kts | 59° |
| 2026-05-05 08:57 | 41.79933 | 12.24552 | 20 ft | 6 kts | 69° |
| 2026-05-05 08:57 | 41.79937 | 12.24594 | 20 ft | 5 kts | 102° |
| 2026-05-05 08:57 | 41.79910 | 12.24622 | 20 ft | 6 kts | 157° |
| 2026-05-05 08:58 | 41.79867 | 12.24644 | 20 ft | 3 kts | 160° |
| 2026-05-05 08:58 | 41.79851 | 12.24652 | 20 ft | 0 kts | 160° |